createdAt,value
2023-04-15T00:02:00.064Z,5.82
2023-04-15T00:04:27.615Z,6.03
2023-04-15T00:06:54.695Z,6.78
2023-04-15T00:09:21.630Z,6.18
2023-04-15T00:11:48.148Z,6.35
2023-04-15T00:14:14.673Z,7.20
2023-04-15T00:16:41.462Z,6.53
2023-04-15T00:19:08.019Z,6.15
2023-04-15T00:21:35.000Z,7.10
2023-04-15T00:24:01.881Z,6.28
2023-04-15T00:26:28.545Z,6.50
2023-04-15T00:28:55.019Z,6.83
2023-04-15T00:31:21.864Z,6.63
2023-04-15T00:33:48.710Z,6.75
2023-04-15T00:36:15.558Z,6.22
2023-04-15T00:38:42.181Z,6.32
2023-04-15T00:41:10.375Z,6.57
2023-04-15T00:43:37.042Z,7.15
2023-04-15T00:46:05.928Z,7.32
2023-04-15T00:48:32.487Z,6.25
2023-04-15T00:50:59.192Z,7.88
2023-04-15T00:53:25.827Z,6.33
2023-04-15T00:55:52.710Z,6.55
2023-04-15T00:58:19.348Z,7.72
2023-04-15T01:00:46.774Z,6.45
2023-04-15T01:03:14.206Z,6.68
2023-04-15T01:05:41.633Z,6.63
2023-04-15T01:08:08.274Z,6.22
2023-04-15T01:10:35.988Z,7.25
2023-04-15T01:13:03.397Z,6.97
2023-04-15T01:15:30.672Z,6.97
2023-04-15T01:17:59.573Z,6.17
2023-04-15T01:20:27.558Z,6.97
2023-04-15T01:22:54.997Z,7.40
2023-04-15T01:25:33.106Z,6.53
2023-04-15T01:28:00.608Z,9.00
2023-04-15T01:30:27.191Z,8.23
2023-04-15T01:32:54.267Z,7.55
2023-04-15T01:35:21.489Z,7.68
2023-04-15T01:37:48.579Z,6.82
2023-04-15T01:40:15.359Z,6.75
2023-04-15T01:42:43.903Z,7.10
2023-04-15T01:45:13.000Z,7.35
2023-04-15T01:47:40.088Z,7.55
2023-04-15T01:50:06.983Z,6.13
2023-04-15T01:52:33.842Z,6.72
2023-04-15T01:55:00.398Z,7.10
2023-04-15T01:57:27.022Z,6.88
2023-04-15T01:59:53.438Z,8.52
2023-04-15T02:02:20.348Z,7.82
2023-04-15T02:04:46.920Z,8.30
2023-04-15T02:07:13.445Z,6.70
2023-04-15T02:09:39.942Z,7.68
2023-04-15T02:12:06.405Z,6.97
2023-04-15T02:14:32.890Z,7.07
2023-04-15T02:17:07.056Z,7.32
2023-04-15T02:19:34.517Z,7.30
2023-04-15T02:22:02.128Z,7.70
2023-04-15T02:24:29.515Z,7.80
2023-04-15T02:26:56.254Z,7.25
2023-04-15T02:29:25.939Z,7.40
2023-04-15T02:31:52.440Z,8.03
2023-04-15T02:34:18.984Z,7.75
2023-04-15T02:36:47.491Z,7.95
2023-04-15T02:39:16.764Z,7.25
2023-04-15T02:41:43.893Z,7.05
2023-04-15T02:44:12.905Z,7.80
2023-04-15T02:46:41.199Z,8.40
2023-04-15T02:49:08.538Z,8.40
2023-04-15T02:51:35.088Z,8.68
2023-04-15T02:54:01.565Z,8.85
2023-04-15T02:56:28.115Z,9.47
2023-04-15T02:58:56.161Z,7.78
2023-04-15T03:01:22.735Z,8.32
2023-04-15T03:03:49.309Z,8.52
2023-04-15T03:06:15.862Z,9.18
2023-04-15T03:08:42.332Z,8.90
2023-04-15T03:11:08.815Z,7.85
2023-04-15T03:13:35.291Z,8.70
2023-04-15T03:16:01.815Z,10.07
2023-04-15T03:18:29.280Z,9.98
2023-04-15T03:20:55.842Z,9.20
2023-04-15T03:23:22.272Z,9.80
2023-04-15T03:25:48.730Z,11.13
2023-04-15T03:28:15.214Z,12.32
2023-04-15T03:30:41.927Z,9.63
2023-04-15T03:33:08.666Z,7.70
2023-04-15T03:35:35.398Z,11.05
2023-04-15T03:38:01.967Z,9.02
2023-04-15T03:40:28.479Z,9.52
2023-04-15T03:42:55.001Z,9.43
2023-04-15T03:45:21.485Z,9.63
2023-04-15T03:47:48.115Z,8.32
2023-04-15T03:50:14.586Z,12.45
2023-04-15T03:52:41.170Z,10.70
2023-04-15T03:55:08.497Z,11.45
2023-04-15T03:57:38.145Z,9.60
2023-04-15T04:00:06.253Z,12.05
2023-04-15T04:02:32.866Z,12.95
2023-04-15T04:04:59.547Z,11.15
2023-04-15T04:07:26.122Z,14.80
2023-04-15T04:09:52.809Z,11.20
2023-04-15T04:12:19.331Z,11.45
2023-04-15T04:14:45.854Z,10.52
2023-04-15T04:17:12.333Z,11.05
2023-04-15T04:19:38.832Z,12.48
2023-04-15T04:22:05.293Z,11.03
2023-04-15T04:24:32.097Z,12.57
2023-04-15T04:26:58.599Z,12.77
2023-04-15T04:29:25.164Z,12.95
2023-04-15T04:31:51.708Z,11.85
2023-04-15T04:34:18.279Z,12.47
2023-04-15T04:36:44.834Z,11.43
2023-04-15T04:39:11.337Z,12.75
2023-04-15T04:41:37.874Z,11.00
2023-04-15T04:44:04.428Z,13.85
2023-04-15T04:46:31.193Z,11.87
2023-04-15T04:48:57.724Z,10.73
2023-04-15T04:51:24.268Z,11.73
2023-04-15T04:53:50.908Z,10.80
2023-04-15T04:56:17.413Z,14.43
2023-04-15T04:58:43.931Z,12.00
2023-04-15T05:01:10.660Z,12.50
2023-04-15T05:03:38.100Z,11.27
2023-04-15T05:06:07.320Z,12.27
2023-04-15T05:08:33.827Z,11.52
2023-04-15T05:11:00.581Z,12.10
2023-04-15T05:13:27.098Z,11.50
2023-04-15T05:15:53.615Z,11.50
2023-04-15T05:18:20.585Z,11.32
2023-04-15T05:20:47.210Z,10.93
2023-04-15T05:23:16.008Z,12.37
2023-04-15T05:25:42.561Z,12.85
2023-04-15T05:28:09.050Z,17.65
2023-04-15T05:30:35.578Z,14.75
2023-04-15T05:33:02.138Z,14.13
2023-04-15T05:35:28.722Z,13.17
2023-04-15T05:37:55.196Z,11.93
2023-04-15T05:40:22.301Z,13.68
2023-04-15T05:42:48.943Z,12.50
2023-04-15T05:45:15.393Z,12.60
2023-04-15T05:47:41.895Z,12.07
2023-04-15T05:50:08.723Z,13.48
2023-04-15T05:52:35.405Z,12.32
2023-04-15T05:55:02.040Z,10.93
2023-04-15T05:57:28.528Z,14.65
2023-04-15T05:59:57.206Z,13.70
2023-04-15T06:02:23.736Z,12.57
2023-04-15T06:04:50.432Z,13.90
2023-04-15T06:07:16.982Z,13.20
2023-04-15T06:09:43.477Z,12.82
2023-04-15T06:12:12.344Z,13.83
2023-04-15T06:14:40.531Z,14.00
2023-04-15T06:17:07.588Z,13.95
2023-04-15T06:19:36.586Z,13.32
2023-04-15T06:22:03.636Z,13.50
2023-04-15T06:24:30.477Z,13.53
2023-04-15T06:26:57.589Z,12.30
2023-04-15T06:29:24.029Z,12.55
2023-04-15T06:31:51.177Z,15.27
2023-04-15T06:34:17.867Z,15.13
2023-04-15T06:36:44.323Z,13.67
2023-04-15T06:39:10.854Z,15.32
2023-04-15T06:41:38.959Z,14.48
2023-04-15T06:44:05.802Z,17.25
2023-04-15T06:46:32.716Z,18.02
2023-04-15T06:48:59.347Z,13.67
2023-04-15T06:51:26.837Z,17.80
2023-04-15T06:53:53.454Z,19.67
2023-04-15T06:56:19.945Z,18.00
2023-04-15T06:58:47.269Z,15.50
2023-04-15T07:01:14.181Z,16.67
2023-04-15T07:03:41.869Z,15.35
2023-04-15T07:06:09.417Z,17.90
2023-04-15T07:08:35.890Z,14.88
2023-04-15T07:11:02.482Z,15.55
2023-04-15T07:13:31.823Z,13.20
2023-04-15T07:15:58.755Z,17.30
2023-04-15T07:18:25.556Z,14.65
2023-04-15T07:20:52.174Z,15.40
2023-04-15T07:23:18.633Z,15.85
2023-04-15T07:25:45.066Z,15.53
2023-04-15T07:28:11.506Z,18.13
2023-04-15T07:30:38.337Z,17.58
2023-04-15T07:33:05.013Z,17.23
2023-04-15T07:35:31.664Z,16.25
2023-04-15T07:37:58.249Z,16.17
2023-04-15T07:40:24.784Z,18.58
2023-04-15T07:42:51.487Z,21.58
2023-04-15T07:45:18.144Z,16.90
2023-04-15T07:47:44.736Z,15.85
2023-04-15T07:50:11.469Z,18.57
2023-04-15T07:52:41.366Z,17.85
2023-04-15T07:55:08.813Z,17.83
2023-04-15T07:57:36.231Z,18.48
2023-04-15T08:00:07.520Z,16.98
2023-04-15T08:02:36.310Z,20.00
2023-04-15T08:05:04.528Z,20.02
2023-04-15T08:07:31.259Z,22.08
2023-04-15T08:09:57.737Z,18.40
2023-04-15T08:12:24.261Z,18.52
2023-04-15T08:14:51.875Z,17.60
2023-04-15T08:17:18.473Z,19.67
2023-04-15T08:19:45.240Z,18.90
2023-04-15T08:22:17.974Z,19.13
2023-04-15T08:24:45.733Z,18.25
2023-04-15T08:27:12.234Z,16.50
2023-04-15T08:29:39.051Z,20.25
2023-04-15T08:32:06.369Z,17.92
2023-04-15T08:34:32.974Z,20.02
2023-04-15T08:36:59.473Z,19.58
2023-04-15T08:39:26.279Z,15.17
2023-04-15T08:42:01.765Z,18.98
2023-04-15T08:44:34.512Z,15.10
2023-04-15T08:47:02.463Z,19.75
2023-04-15T08:49:29.735Z,20.83
2023-04-15T08:51:58.913Z,17.00
2023-04-15T08:54:27.113Z,15.57
2023-04-15T08:56:54.473Z,16.23
2023-04-15T08:59:22.214Z,15.90
2023-04-15T09:01:51.185Z,21.60
2023-04-15T09:04:18.239Z,20.30
2023-04-15T09:06:44.889Z,19.10
2023-04-15T09:09:13.085Z,20.48
2023-04-15T09:11:39.650Z,17.80
2023-04-15T09:14:06.186Z,18.25
2023-04-15T09:16:53.166Z,19.70
2023-04-15T09:19:24.418Z,19.30
2023-04-15T09:21:58.010Z,23.65
2023-04-15T09:24:27.135Z,6.35
2023-04-15T09:26:55.435Z,5.70
2023-04-15T09:29:24.901Z,5.63
2023-04-15T09:31:51.531Z,5.28
2023-04-15T09:34:18.118Z,4.63
2023-04-15T09:36:49.127Z,4.68
2023-04-15T09:39:16.961Z,5.15
2023-04-15T09:41:44.373Z,5.20
2023-04-15T09:44:27.220Z,7.25
2023-04-15T09:46:54.022Z,6.88
2023-04-15T09:49:20.947Z,6.00
2023-04-15T09:52:01.481Z,7.45
2023-04-15T09:54:38.737Z,6.70
2023-04-15T09:57:07.334Z,5.63
2023-04-15T09:59:33.985Z,5.18
2023-04-15T10:02:01.074Z,6.72
2023-04-15T10:04:28.721Z,5.55
2023-04-15T10:06:56.815Z,5.73
2023-04-15T10:09:23.499Z,5.97
2023-04-15T10:11:50.688Z,5.90
2023-04-15T10:14:19.139Z,6.53
2023-04-15T10:16:49.046Z,6.18
2023-04-15T10:19:19.181Z,5.43
2023-04-15T10:21:46.600Z,5.53
2023-04-15T10:24:13.611Z,5.28
2023-04-15T10:26:40.868Z,4.68
2023-04-15T10:29:09.175Z,5.70
2023-04-15T10:31:38.201Z,5.00
2023-04-15T10:34:06.604Z,4.38
2023-04-15T10:36:33.403Z,4.32
2023-04-15T10:38:59.913Z,3.72
2023-04-15T10:41:29.895Z,4.00
2023-04-15T10:44:04.344Z,3.80
2023-04-15T10:46:40.077Z,4.22
2023-04-15T10:49:17.358Z,4.00
2023-04-15T10:51:51.984Z,4.22
2023-04-15T10:54:24.536Z,3.92
2023-04-15T10:57:06.751Z,4.03
2023-04-15T10:59:37.488Z,4.38
2023-04-15T11:02:05.954Z,5.20
2023-04-15T11:04:54.704Z,4.65
2023-04-15T11:07:38.418Z,4.55
2023-04-15T11:10:31.218Z,4.97
2023-04-15T11:13:03.009Z,4.05
2023-04-15T11:15:30.317Z,4.90
2023-04-15T11:17:58.142Z,4.95
2023-04-15T11:20:25.434Z,4.40
2023-04-15T11:23:13.961Z,3.70
2023-04-15T11:25:41.791Z,3.65
2023-04-15T11:28:08.602Z,4.43
2023-04-15T11:30:37.346Z,3.92
2023-04-15T11:33:06.384Z,4.20
2023-04-15T11:35:33.534Z,3.30
2023-04-15T11:38:04.093Z,4.30
2023-04-15T11:40:31.591Z,4.00
2023-04-15T11:43:07.662Z,3.05
2023-04-15T11:45:34.719Z,3.63
2023-04-15T11:48:12.047Z,4.17
2023-04-15T11:50:41.151Z,4.68
2023-04-15T11:53:09.940Z,4.05
2023-04-15T11:55:44.637Z,3.97
2023-04-15T11:58:25.145Z,3.88
2023-04-15T12:01:00.028Z,3.17
2023-04-15T12:03:29.888Z,3.10
2023-04-15T12:06:11.250Z,3.85
2023-04-15T12:08:55.966Z,3.33
2023-04-15T12:11:31.825Z,3.22
2023-04-15T12:14:20.102Z,3.80
2023-04-15T12:16:53.851Z,4.00
2023-04-15T12:19:32.444Z,4.40
2023-04-15T12:22:04.241Z,3.65
2023-04-15T12:24:36.267Z,3.80
2023-04-15T12:27:12.110Z,4.27
2023-04-15T12:29:40.244Z,4.22
2023-04-15T12:32:14.588Z,4.78
2023-04-15T12:34:43.169Z,4.22
2023-04-15T12:37:12.027Z,5.15
2023-04-15T12:39:41.527Z,5.53
2023-04-15T12:42:09.112Z,6.32
2023-04-15T12:44:36.776Z,5.72
2023-04-15T12:47:03.888Z,5.78
2023-04-15T12:49:32.578Z,7.03
2023-04-15T12:52:01.068Z,6.20
2023-04-15T12:54:28.568Z,6.88
2023-04-15T12:56:56.107Z,5.57
2023-04-15T12:59:24.291Z,6.28
2023-04-15T13:01:52.506Z,6.93
2023-04-15T13:04:20.931Z,6.43
2023-04-15T13:06:47.811Z,6.80
2023-04-15T13:09:15.707Z,6.15
2023-04-15T13:11:42.697Z,7.18
2023-04-15T13:14:11.316Z,8.75
2023-04-15T13:16:37.833Z,7.77
2023-04-15T13:19:04.541Z,5.53
2023-04-15T13:21:35.160Z,7.65
2023-04-15T13:24:03.017Z,5.60
2023-04-15T13:26:29.777Z,6.65
2023-04-15T13:28:56.712Z,5.97
2023-04-15T13:31:23.432Z,5.40
2023-04-15T13:33:49.925Z,6.03
2023-04-15T13:36:16.599Z,8.05
2023-04-15T13:38:43.247Z,5.20
2023-04-15T13:41:09.826Z,4.10
2023-04-15T13:43:36.676Z,3.10
2023-04-15T13:46:03.425Z,4.20
2023-04-15T13:48:30.137Z,2.70
2023-04-15T13:50:56.590Z,2.42
2023-04-15T13:53:38.541Z,4.53
2023-04-15T13:56:07.508Z,4.80
2023-04-15T13:58:34.322Z,4.57
2023-04-15T14:01:02.578Z,5.32
2023-04-15T14:03:30.647Z,5.22
2023-04-15T14:05:58.116Z,5.23
2023-04-15T14:08:25.268Z,5.68
2023-04-15T14:10:51.804Z,6.55
2023-04-15T14:13:19.549Z,11.93
2023-04-15T14:15:46.888Z,12.05
2023-04-15T14:18:13.402Z,6.77
2023-04-15T14:20:39.931Z,6.30
2023-04-15T14:23:06.493Z,4.32
2023-04-15T14:25:34.066Z,4.50
2023-04-15T14:28:01.583Z,5.15
2023-04-15T14:30:28.171Z,4.03
2023-04-15T14:32:54.798Z,2.95
2023-04-15T14:35:21.607Z,2.70
2023-04-15T14:37:48.196Z,4.03
2023-04-15T14:40:14.645Z,5.22
2023-04-15T14:42:41.168Z,3.00
2023-04-15T14:45:08.515Z,2.50
2023-04-15T14:47:35.719Z,2.42
2023-04-15T14:50:02.597Z,2.28
2023-04-15T14:52:30.673Z,2.85
2023-04-15T14:54:57.162Z,3.80
2023-04-15T14:57:23.598Z,3.25
2023-04-15T14:59:50.132Z,3.15
2023-04-15T15:02:26.308Z,3.55
2023-04-15T15:05:03.512Z,4.13
2023-04-15T15:07:30.272Z,3.60
2023-04-15T15:09:56.919Z,3.92
2023-04-15T15:12:23.626Z,4.55
2023-04-15T15:14:50.315Z,4.85
2023-04-15T15:17:16.788Z,4.18
2023-04-15T15:19:43.290Z,5.07
2023-04-15T15:22:09.895Z,6.07
2023-04-15T15:24:36.423Z,6.90
2023-04-15T15:27:03.145Z,6.00
2023-04-15T15:29:29.612Z,5.60
2023-04-15T15:31:56.256Z,5.80
2023-04-15T15:34:22.833Z,6.07
2023-04-15T15:36:49.468Z,5.53
2023-04-15T15:39:16.342Z,5.85
2023-04-15T15:41:42.844Z,5.60
2023-04-15T15:44:09.305Z,5.83
2023-04-15T15:46:35.987Z,5.88
2023-04-15T15:49:03.892Z,6.15
2023-04-15T15:51:30.868Z,4.50
2023-04-15T15:53:57.557Z,5.15
2023-04-15T15:56:24.273Z,3.97
2023-04-15T15:58:50.903Z,6.65
2023-04-15T16:01:17.530Z,8.90
2023-04-15T16:03:44.235Z,8.98
2023-04-15T16:06:10.900Z,8.15
2023-04-15T16:08:37.382Z,7.80
2023-04-15T16:11:03.921Z,10.18
2023-04-15T16:13:30.549Z,13.52
2023-04-15T16:15:57.122Z,10.85
2023-04-15T16:18:23.683Z,7.97
2023-04-15T16:20:50.398Z,8.87
2023-04-15T16:23:17.110Z,6.45
2023-04-15T16:25:44.767Z,9.13
2023-04-15T16:28:25.199Z,9.48
2023-04-15T16:30:53.641Z,8.55
2023-04-15T16:33:20.391Z,8.93
2023-04-15T16:35:47.116Z,8.82
2023-04-15T16:38:13.645Z,8.05
2023-04-15T16:40:40.477Z,6.60
2023-04-15T16:43:08.193Z,7.63
2023-04-15T16:45:34.829Z,8.37
2023-04-15T16:48:01.399Z,8.77
2023-04-15T16:50:28.303Z,9.30
2023-04-15T16:52:55.149Z,8.40
2023-04-15T16:55:21.908Z,10.85
2023-04-15T16:57:48.802Z,10.43
2023-04-15T17:00:29.765Z,10.20
2023-04-15T17:02:56.407Z,10.35
2023-04-15T17:05:23.124Z,9.73
2023-04-15T17:07:49.691Z,10.45
2023-04-15T17:10:16.497Z,12.73
2023-04-15T17:12:43.082Z,11.95
2023-04-15T17:15:10.227Z,14.23
2023-04-15T17:17:36.869Z,15.27
2023-04-15T17:20:04.263Z,14.77
2023-04-15T17:22:30.952Z,13.60
2023-04-15T17:24:57.494Z,16.67
2023-04-15T17:27:24.754Z,15.95
2023-04-15T17:29:51.404Z,17.00
2023-04-15T17:32:18.224Z,14.88
2023-04-15T17:34:49.841Z,11.30
2023-04-15T17:37:18.135Z,11.48
2023-04-15T17:39:45.471Z,11.20
2023-04-15T17:42:13.043Z,10.65
2023-04-15T17:44:40.030Z,12.60
2023-04-15T17:47:06.973Z,12.63
2023-04-15T17:49:34.262Z,11.45
2023-04-15T17:52:01.312Z,14.35
2023-04-15T17:54:28.191Z,12.70
2023-04-15T17:56:56.601Z,15.32
2023-04-15T17:59:23.286Z,13.10
2023-04-15T18:01:50.114Z,13.23
2023-04-15T18:04:16.872Z,11.88
2023-04-15T18:06:43.527Z,12.68
2023-04-15T18:09:10.244Z,11.70
2023-04-15T18:11:38.944Z,11.27
2023-04-15T18:14:05.840Z,12.25
2023-04-15T18:16:32.621Z,10.45
2023-04-15T18:18:59.735Z,9.82
2023-04-15T18:21:27.126Z,11.60
2023-04-15T18:23:53.697Z,11.27
2023-04-15T18:26:21.565Z,9.63
2023-04-15T18:28:48.605Z,9.80
2023-04-15T18:31:15.171Z,9.45
2023-04-15T18:33:41.960Z,9.30
2023-04-15T18:36:09.498Z,7.07
2023-04-15T18:38:36.135Z,7.50
2023-04-15T18:41:03.068Z,7.68
2023-04-15T18:43:29.610Z,7.35
2023-04-15T18:45:56.506Z,7.40
2023-04-15T18:48:23.096Z,6.37
2023-04-15T18:50:53.879Z,8.35
2023-04-15T18:53:21.645Z,8.18
2023-04-15T18:55:48.549Z,9.02
2023-04-15T18:58:15.734Z,7.65
2023-04-15T19:00:43.753Z,11.73
2023-04-15T19:03:11.366Z,8.13
2023-04-15T19:05:38.255Z,8.43
2023-04-15T19:08:04.932Z,8.45
2023-04-15T19:10:31.680Z,8.38
2023-04-15T19:12:58.422Z,7.77
2023-04-15T19:15:24.907Z,8.73
2023-04-15T19:17:54.507Z,10.10
2023-04-15T19:20:21.194Z,8.98
2023-04-15T19:22:48.653Z,10.73
2023-04-15T19:25:22.852Z,13.70
2023-04-15T19:27:49.330Z,10.52
2023-04-15T19:30:16.505Z,9.65
2023-04-15T19:32:43.347Z,10.85
2023-04-15T19:35:11.596Z,10.85
2023-04-15T19:37:38.644Z,11.23
2023-04-15T19:40:06.063Z,11.35
2023-04-15T19:42:32.855Z,10.75
2023-04-15T19:44:59.612Z,10.43
2023-04-15T19:47:27.809Z,10.43
2023-04-15T19:49:54.570Z,10.97
2023-04-15T19:52:22.315Z,10.52
2023-04-15T19:54:49.284Z,11.60
2023-04-15T19:57:15.865Z,9.20
2023-04-15T19:59:42.446Z,10.90
2023-04-15T20:02:09.313Z,10.83
2023-04-15T20:04:36.281Z,11.00
2023-04-15T20:07:02.911Z,11.18
2023-04-15T20:09:29.440Z,9.20
2023-04-15T20:12:47.477Z,9.85
2023-04-15T20:14:43.217Z,10.27
2023-04-15T20:17:10.127Z,11.30
2023-04-15T20:19:39.587Z,11.45
2023-04-15T20:22:06.232Z,10.55
2023-04-15T20:24:32.941Z,10.30
2023-04-15T20:26:59.475Z,13.17
2023-04-15T20:29:26.650Z,10.65
2023-04-15T20:31:53.270Z,10.55
2023-04-15T20:34:19.786Z,10.57
2023-04-15T20:36:46.323Z,10.18
2023-04-15T20:39:15.870Z,10.97
2023-04-15T20:41:42.600Z,10.05
2023-04-15T20:44:09.434Z,13.57
2023-04-15T20:46:39.404Z,12.75
2023-04-15T20:49:06.297Z,11.80
2023-04-15T20:51:37.517Z,13.80
2023-04-15T20:54:05.073Z,12.13
2023-04-15T20:56:31.829Z,14.15
2023-04-15T20:58:59.963Z,13.02
2023-04-15T21:01:26.642Z,14.30
2023-04-15T21:03:53.270Z,11.80
2023-04-15T21:06:19.800Z,15.07
2023-04-15T21:08:46.509Z,21.80
2023-04-15T21:11:18.874Z,20.02
2023-04-15T21:13:58.651Z,18.42
2023-04-15T21:16:25.355Z,19.23
2023-04-15T21:18:51.959Z,22.25
2023-04-15T21:21:20.986Z,19.98
2023-04-15T21:23:47.545Z,19.30
2023-04-15T21:26:14.295Z,20.00
2023-04-15T21:28:40.975Z,19.43
2023-04-15T21:31:07.709Z,19.98
2023-04-15T21:33:34.143Z,22.90
2023-04-15T21:36:00.770Z,22.48
2023-04-15T21:38:27.352Z,27.40
2023-04-15T21:40:54.339Z,19.20
2023-04-15T21:43:23.108Z,17.80
2023-04-15T21:46:22.892Z,16.77
2023-04-15T21:48:36.598Z,12.75
2023-04-15T21:51:03.527Z,11.40
2023-04-15T21:53:30.075Z,11.53
2023-04-15T21:55:56.844Z,12.63
2023-04-15T21:58:23.689Z,12.63
2023-04-15T22:00:50.320Z,12.68
2023-04-15T22:03:16.961Z,11.88
2023-04-15T22:05:45.997Z,12.83
2023-04-15T22:08:12.593Z,14.93
2023-04-15T22:10:39.722Z,12.95
2023-04-15T22:13:08.734Z,13.63
2023-04-15T22:15:38.633Z,14.23
2023-04-15T22:18:05.972Z,16.10
2023-04-15T22:20:32.567Z,21.20
2023-04-15T22:22:59.258Z,18.13
2023-04-15T22:25:25.993Z,18.02
2023-04-15T22:27:52.521Z,19.30
2023-04-15T22:30:22.025Z,19.37
2023-04-15T22:32:48.575Z,20.20
2023-04-15T22:35:15.432Z,22.58
2023-04-15T22:37:42.210Z,21.20
2023-04-15T22:40:09.298Z,20.33
2023-04-15T22:42:35.963Z,20.60
2023-04-15T22:45:02.663Z,20.20
2023-04-15T22:47:29.518Z,22.40
2023-04-15T22:49:56.104Z,24.08
2023-04-15T22:52:30.022Z,21.45
2023-04-15T22:54:57.296Z,25.27
2023-04-15T22:57:24.002Z,25.08
2023-04-15T22:59:50.479Z,24.42
2023-04-15T23:02:17.444Z,20.15
2023-04-15T23:04:44.246Z,18.55
2023-04-15T23:07:11.346Z,18.90
2023-04-15T23:09:39.007Z,17.73
2023-04-15T23:12:06.239Z,17.45
2023-04-15T23:14:33.024Z,18.55
2023-04-15T23:16:59.494Z,18.55
2023-04-15T23:19:25.987Z,17.53
2023-04-15T23:21:54.246Z,17.73
2023-04-15T23:24:21.088Z,24.35
2023-04-15T23:26:47.584Z,26.80
2023-04-15T23:29:14.268Z,26.92
2023-04-15T23:31:41.725Z,24.07
2023-04-15T23:34:08.490Z,27.08
2023-04-15T23:36:35.322Z,24.40
2023-04-15T23:39:01.998Z,21.27
2023-04-15T23:41:28.836Z,18.20
2023-04-15T23:43:55.354Z,20.60
2023-04-15T23:46:22.122Z,21.85
2023-04-15T23:48:49.146Z,21.90
2023-04-15T23:51:15.976Z,18.50
2023-04-15T23:53:42.572Z,22.48
2023-04-15T23:56:09.148Z,19.10
2023-04-15T23:58:35.643Z,23.15
